Terminal Aerodrome Forecast
Issued by NWS Jackson, KY

Home | Current Version | Previous Version | Text Only | Print | Product List | Glossary On
Versions: 1 2 3 4 5 6 7 8 9 10 11 12 13 14 15 16 17 18 19 20 21 22 23 24
000
FTUS43 KJKL 011100
TAFJKL
TAF
KJKL 011130Z 0112/0212 VRB03KT P6SM BKN012
     FM011400 22004KT P6SM SCT015 BKN025
     FM011600 24008KT P6SM SCT035
     FM020000 VRB03KT P6SM SCT200=

USA.gov is the U.S. government's official web portal to all federal, state and local government web resources and services.